This site, now in its 15th season, is a labour of love and fun from one of Ottawa's most avid time trialists and number crunchers. It adheres to and is permitted by the laws of Canada, promotes the objectives of every bicycle club whose results are shown, and is donated free of charge by myself for your enjoyment and usage. If you would like results from series you ride in to be shown here, give me (celia@drmath.ca) a shout!


Index Page
ATT OTT WTT AATT CFCTT VVVTT
Help resultformat:
Case-sensitive

OBC Open TT Series - 2018-Aug-30 (Eddie Merckx) - 15km (Rockliffe Pkwy)

Ottawa Weather (18:00): Mainly Sunny. Temp.erature: 20.4░C, Wind: N 9km/h, Humidex: 22, Relative humidity: 52%, Dew point: 11░C, Pressure: 102.3kPa, Visibility: 24km.
Ottawa Weather (19:00): Mainly Sunny. Temp.erature: 19.2░C, Wind: NNW 9km/h, Humidex: *, Relative humidity: 54%, Dew point: 10░C, Pressure: 102.3kPa, Visibility: 24km.
Ottawa Weather (20:00): Mainly Clear. Temp.erature: 17.6░C, Wind: N 10km/h, Humidex: *, Relative humidity: 59%, Dew point: 10░C, Pressure: 102.4kPa, Visibility: 24km.

Send photos with description (when/where/what) of yourself on or off of bike to celia@drmath.ca

 
 


BESTS?
 
1 Fillion, Aaron  OBC/RWR 2018-Aug-30 OTT 15km 19:23 46.432 1/24 VBM 1/6  
2 Rendall, Glen  RWR 2018-Aug-30 OTT 15km 19:36 45.918 2/24 VBM 2/6 0.9822
3 MacDonald, Warren 
(Fastest Merckx... on a "modern" Merckx)
NTF 2018-Aug-30 OTT 15km 20:30 43.902 1/32 VBM 1/8  
4 Tremblay, Patrick RDO 2018-Aug-30 OTT 15km 20:35 43.725 3/24 VBM 3/6 1.1029
5 Brodeur, Martin OBC 2018-Aug-30 OTT 15km 21:01 42.823 4/24 VBM 4/6 0.8835
6 Boers, Daniel OBC 2018-Aug-30 OTT 15km 21:23 42.089 5/24 SEM 1/2 0.8812
7 Monnink, Jordan IND 2018-Aug-30 OTT 15km 21:27 41.958 2/32 SEM 1/3 0.7826
8 Martin, David OBC 2018-Aug-30 OTT 15km 21:36 41.667 3/32 VBM 2/8  
9 Burge, Craig  CYC 2018-Aug-30 OTT 15km 21:37 41.635 6/24 VCM 1/6 0.8995
10 Martins, Alex OBC 2018-Aug-30 OTT 15km 21:38 41.602 7/24 VBM 5/6 0.8803
11 Mullington, Chris WQW 2018-Aug-30 OTT 15km 21:39 41.570 8/24 VDM 1/6 0.8953
12 Ross, Ron CLG 2018-Aug-30 OTT 15km 21:40 41.538 9/24 VCM 2/6 0.9040
13 Pérès, Erwan IND 2018-Aug-30 OTT 15km 21:54 41.096 4/32 VBM 3/8 0.8004
14 Campbell, Colin  OBC 2018-Aug-30 OTT 15km 22:03 40.816 10/24 VCM 3/6 0.8950
15 Brazeau, Marc RDO 2018-Aug-30 OTT 15km 22:06 40.724 5/32 VBM 4/8 0.7047
16 Budgell, Glen  OBC 2018-Aug-30 OTT 15km 22:07 40.693 11/24 VDM 2/6 0.9598
17 Burge, Larry  OBC 2018-Aug-30 OTT 15km 22:14 40.480 12/24 VCM 4/6 0.9777
18 Posthuma, Hans  OBC 2018-Aug-30 OTT 15km 22:37 39.794 13/24 VDM 3/6 1.0156
19 Thompson, William OBC 2018-Aug-30 OTT 15km 22:40 39.706 6/32 VCM 1/5 0.9565
20 Deschamps, Martin WQW 2018-Aug-30 OTT 15km 22:47 39.503 14/24 VBM 6/6 0.9761
21 Christie, Greg  OBC/RWR 2018-Aug-30 OTT 15km 22:51 39.387 15/24 VDM 4/6 1.0376
22 Rudnicki, Dave WQW 2018-Aug-30 OTT 15km 22:56 39.244 7/32 VCM 2/5 0.9848
23 Page, Graham OBC/NTF 2018-Aug-30 OTT 15km 22:57 39.216 8/32 VAM 1/1 0.7957
24 Schuck, Peter  OBC/RWR 2018-Aug-30 OTT 15km 23:06 38.961 9/32 VDM 1/7 0.7213
25 Robitaille, Brian  OBC/FC 2018-Aug-30 OTT 15km 23:13 38.765 16/24 VCM 5/6 0.9021
26 Tregunno, Peter  OBC 2018-Aug-30 OTT 15km 23:16 38.682 10/32 VBM 5/8 0.8706
27 Corner, Doug  OBC 2018-Aug-30 OTT 15km 23:19 38.599 11/32 VDM 2/7 0.8400
28 Till, Michael WQW 2018-Aug-30 OTT 15km 23:23 38.489 12/32 VCM 3/5 0.8480
29 Lawrence, Will OBC 2018-Aug-30 OTT 15km 23:24 38.462 17/24 SEM 2/2 0.8890
30 Momtahan, Parham  OBC 2018-Aug-30 OTT 15km 23:29 38.325 18/24 VDM 5/6 0.9395
31 DeVidi, Robert  OBC 2018-Aug-30 OTT 15km 23:42 37.975 19/24 VCM 6/6 0.8748
32 Boulanger, Gaetan  IND 2018-Aug-30 OTT 15km 23:50 37.762 20/24 VEM 1/1 1.0084
33 Lavergne, Jazmine OBC 2018-Aug-30 OTT 15km 23:58 37.552 13/32 CAF 1/1 0.9090
34 Deavy, Carol  OBC 2018-Aug-30 OTT 15km 24:01 37.474 21/24 VCF 1/1 0.9508
35 Rivoche, Michael WQW 2018-Aug-30 OTT 15km 24:07 37.319 14/32 VDM 3/7 0.8303
36 Moerman, Bram  OBC 2018-Aug-30 OTT 15km 24:20 36.986 15/32 VEM 1/4 0.9220
37 Véronneau, Marc OBC 2018-Aug-30 OTT 15km 24:44 36.388 16/32 VCM 4/5 0.8985
38 Sargent, Larry OBC 2018-Aug-30 OTT 15km 25:27 35.363 17/32 VDM 4/7  
39 Austen, Ian  OBC 2018-Aug-30 OTT 15km 25:40 35.065 22/24 VDM 6/6 0.9540
40 Laberge, Marc OBC 2018-Aug-30 OTT 15km 25:44 34.974 23/24 VAM 1/1 0.9298
41 Burdett, Avery  OBC 2018-Aug-30 OTT 15km 25:55 34.727 18/32 VEM 2/4 0.8816
42 Arsenault, Ariane CDO 2018-Aug-30 OTT 15km 26:11 34.373 24/24 CAF 1/1 0.8192
43 Morvan, Jacques  OBC 2018-Aug-30 OTT 15km 26:21 34.156 19/32 VEM 3/4 0.6622
44 O'Loan, Tim OBC 2018-Aug-30 OTT 15km 26:40 33.750 20/32 VBM 6/8 1.1187
45 Lavergne, Jayde OBC 2018-Aug-30 OTT 15km 26:46 33.624 21/32 MIF 1/1 0.8990
46 Basu, Ben  OBC 2018-Aug-30 OTT 15km 27:08 33.170 22/32 VBM 7/8 0.6224
47 Monette, Gary WQW 2018-Aug-30 OTT 15km 27:13 33.068 23/32 VDM 5/7 0.9872
48 Pham, Doug WQW 2018-Aug-30 OTT 15km 27:19 32.947 24/32 VCM 5/5 0.8199
49 Beauchamp, Angela & Kostic, Maja
(on fixies?)
TTT 2018-Aug-30 OTT 15km 27:25 32.827 25/32 TTT 1/1  
50 Gelinas, Brandon
(The fastest a Velogo bike has/will gone/go?)
SENIORáM 2018-Aug-30 OTT 15km 27:53 32.277 26/32 SEM 2/3 0.4563
51 Patterson, Craig OBC 2018-Aug-30 OTT 15km 28:03 32.086 27/32 SEM 3/3 0.8755
52 Imbrogno, Giorgio  OBC 2018-Aug-30 OTT 15km 28:14 31.877 28/32 VDM 6/7 0.6804
53 Dore, Morley OBC 2018-Aug-30 OTT 15km 28:26 31.653 29/32 VEM 4/4 0.7558
54 McInnis, Celia 
("Best dressed" Merckx)
OBC 2018-Aug-30 OTT 15km 28:53 31.160 30/32 VDF 1/1 0.7914
55 Shand, Peter OBC 2018-Aug-30 OTT 15km 30:36 29.412 31/32 VDM 7/7 0.5675
56 Au, Steve IND 2018-Aug-30 OTT 15km 31:00 29.032 32/32 VBM 8/8 0.8314
 
Average Speed of all of the above 56 finishes (840km in 22:32:03):37.277
>>>Average of the Average Speeds for these 56 finishes37.729<<<
 

The number of data records shown above is 56
The server processing of your query took: 0 wallclock secs ( 0.07 usr + 0.01 sys = 0.08 CPU)

Thanks to our Helpers: Mark Manners, Alex McKnight, Jess Raymond, Peter Tregunno

     


Mar 30 (Good Friday)
May 1 (10km) May 3 May 8 (10km) May 10 May 15 (10km) May 17 May 22 (10km) May 24 May 29 (10km) May 31
Jun 5 Jun 5 Jun 7 Jun 12 Jun 12 Jun 14 Jun 17 (40km) Jun 19 Jun 19 Jun 21 Jun 26 Jun 26 Jun 28
Jul 3 Jul 3 Jul 5 Jul 8 (40km) Jul 10 Jul 10 Jul 12 Jul 17 Jul 17 Jul 19 Jul 24 Jul 24 Jul 26 Jul 31 Jul 31
Aug 2 Aug 5 (40km) Aug 7 Aug 7 Aug 9 Aug 14 Aug 14 Aug 16 Aug 21 Aug 21 Aug 23 Aug 28 Aug 28 (Invitational)
  Aug 30#1 (Eddie Merckx)  
  Aug 30#2 (With Aero)  
Sep 2 (40km) Sep 4 Sep 6 Sep 11 Sep 13 Sep 18

OTT Rankings
Best       Best by category
WTT Rankings for All Participants
5 Best Speeds (≥3 15km, ≤1 10km)     5 Best Speeds (≥3 15km, ≤1 10km) by category
OTT Best Three 15km Rankings
Overall     by category     age-Hcap Female   age-Hcap Male
Other years
TT Calculator All TT People All TT events
ABC Home VVV Home
CKAP GOLD MEDAL
Other Links

Note: OTT data from 2003 through 2006-Apr-14 and 2007-Apr-06-? and WTT from 2008-? is taken from the official OBC site.

Please send your comments and suggestions to: Celia McInnis
Copyright © 1998-2011 Celia McInnis. All rights reserved. Links are welcomed.